createdAt,value
2023-03-21T00:01:59.961Z,58
2023-03-21T00:04:44.768Z,58
2023-03-21T00:07:07.068Z,58
2023-03-21T00:09:40.606Z,59
2023-03-21T00:12:18.113Z,59
2023-03-21T00:14:51.314Z,59
2023-03-21T00:17:21.765Z,60
2023-03-21T00:19:53.996Z,61
2023-03-21T00:22:25.410Z,61
2023-03-21T00:24:55.952Z,61
2023-03-21T00:27:47.488Z,60
2023-03-21T00:30:00.185Z,60
2023-03-21T00:32:30.968Z,60
2023-03-21T00:35:26.039Z,61
2023-03-21T00:37:40.335Z,60
2023-03-21T00:40:19.645Z,60
2023-03-21T00:42:43.377Z,60
2023-03-21T00:45:18.153Z,60
2023-03-21T00:47:50.134Z,60
2023-03-21T00:50:24.920Z,60
2023-03-21T00:52:56.617Z,60
2023-03-21T00:55:30.106Z,60
2023-03-21T00:58:02.703Z,61
2023-03-21T01:00:38.188Z,62
2023-03-21T01:03:23.500Z,61
2023-03-21T01:05:48.316Z,62
2023-03-21T01:08:33.138Z,62
2023-03-21T01:11:00.773Z,63
2023-03-21T01:13:44.141Z,63
2023-03-21T01:16:11.735Z,62
2023-03-21T01:18:42.589Z,62
2023-03-21T01:21:13.607Z,62
2023-03-21T01:23:48.035Z,62
2023-03-21T01:26:20.805Z,62
2023-03-21T01:28:52.209Z,62
2023-03-21T01:31:25.015Z,62
2023-03-21T01:33:56.187Z,62
2023-03-21T01:36:27.759Z,62
2023-03-21T01:39:01.546Z,62
2023-03-21T01:41:42.279Z,61
2023-03-21T01:44:05.453Z,61
2023-03-21T01:46:49.533Z,61
2023-03-21T01:49:11.589Z,62
2023-03-21T01:51:43.993Z,62
2023-03-21T01:54:15.356Z,62
2023-03-21T01:56:48.826Z,62
2023-03-21T01:59:20.355Z,62
2023-03-21T02:02:00.332Z,62
2023-03-21T02:04:31.614Z,62
2023-03-21T02:07:02.497Z,62
2023-03-21T02:09:33.706Z,62
2023-03-21T02:12:08.734Z,63
2023-03-21T02:14:42.368Z,63
2023-03-21T02:17:13.143Z,63
2023-03-21T02:19:52.606Z,63
2023-03-21T02:22:16.095Z,63
2023-03-21T02:24:54.438Z,63
2023-03-21T02:27:19.599Z,63
2023-03-21T02:29:51.498Z,63
2023-03-21T02:32:36.461Z,63
2023-03-21T02:35:00.937Z,63
2023-03-21T02:37:38.533Z,63
2023-03-21T02:40:08.589Z,63
2023-03-21T02:42:39.605Z,63
2023-03-21T02:45:08.724Z,63
2023-03-21T02:47:40.174Z,64
2023-03-21T02:50:11.076Z,64
2023-03-21T02:52:40.615Z,65
2023-03-21T02:55:17.781Z,65
2023-03-21T02:57:53.499Z,65
2023-03-21T03:00:24.731Z,64
2023-03-21T03:03:06.547Z,64
2023-03-21T03:05:27.555Z,64
2023-03-21T03:07:58.446Z,64
2023-03-21T03:10:29.435Z,63
2023-03-21T03:13:01.109Z,64
2023-03-21T03:15:32.868Z,64
2023-03-21T03:18:03.281Z,64
2023-03-21T03:20:34.396Z,64
2023-03-21T03:23:06.011Z,64
2023-03-21T03:25:43.118Z,65
2023-03-21T03:28:12.376Z,65
2023-03-21T03:31:01.085Z,65
2023-03-21T03:33:19.424Z,65
2023-03-21T03:35:58.984Z,64
2023-03-21T03:38:21.460Z,65
2023-03-21T03:40:52.312Z,65
2023-03-21T03:43:23.760Z,65
2023-03-21T03:45:54.939Z,65
2023-03-21T03:48:26.192Z,66
2023-03-21T03:50:57.395Z,66
2023-03-21T03:53:33.035Z,66
2023-03-21T03:56:04.004Z,65
2023-03-21T03:58:44.766Z,65
2023-03-21T04:01:09.550Z,65
2023-03-21T04:03:49.685Z,65
2023-03-21T04:06:18.314Z,65
2023-03-21T04:08:49.029Z,65
2023-03-21T04:11:21.873Z,65
2023-03-21T04:13:52.646Z,65
2023-03-21T04:19:01.008Z,66
2023-03-21T04:21:31.809Z,66
2023-03-21T04:24:02.885Z,66
2023-03-21T04:26:33.692Z,66
2023-03-21T04:29:04.806Z,66
2023-03-21T04:31:39.333Z,66
2023-03-21T04:34:10.188Z,66
2023-03-21T04:36:45.573Z,66
2023-03-21T04:39:26.356Z,66
2023-03-21T04:41:57.560Z,66
2023-03-21T04:44:30.643Z,65
2023-03-21T04:47:02.229Z,65
2023-03-21T04:49:33.691Z,65
2023-03-21T04:52:06.034Z,65
2023-03-21T04:54:37.528Z,65
2023-03-21T04:57:10.706Z,66
2023-03-21T04:59:41.488Z,65
2023-03-21T05:02:12.080Z,66
2023-03-21T05:04:42.816Z,66
2023-03-21T05:07:13.340Z,66
2023-03-21T05:09:44.364Z,66
2023-03-21T05:12:15.490Z,66
2023-03-21T05:14:49.813Z,66
2023-03-21T05:17:20.592Z,66
2023-03-21T05:19:52.587Z,66
2023-03-21T05:22:23.396Z,67
2023-03-21T05:24:54.451Z,66
2023-03-21T05:27:25.653Z,66
2023-03-21T05:29:57.260Z,66
2023-03-21T05:32:27.989Z,66
2023-03-21T05:34:58.816Z,66
2023-03-21T05:37:29.504Z,66
2023-03-21T05:40:00.000Z,66
2023-03-21T05:42:30.906Z,66
2023-03-21T05:45:01.675Z,66
2023-03-21T05:47:32.683Z,66
2023-03-21T05:50:03.647Z,66
2023-03-21T05:52:34.156Z,65
2023-03-21T05:55:04.877Z,65
2023-03-21T05:57:36.195Z,65
2023-03-21T06:00:07.304Z,66
2023-03-21T06:02:37.795Z,66
2023-03-21T06:05:08.485Z,66
2023-03-21T06:07:39.089Z,66
2023-03-21T06:10:09.737Z,65
2023-03-21T06:12:41.523Z,65
2023-03-21T06:15:12.511Z,65
2023-03-21T06:17:43.443Z,65
2023-03-21T06:20:14.540Z,65
2023-03-21T06:22:45.336Z,65
2023-03-21T06:25:16.048Z,66
2023-03-21T06:27:48.339Z,65
2023-03-21T06:30:22.688Z,65
2023-03-21T06:32:53.353Z,65
2023-03-21T06:35:24.442Z,64
2023-03-21T06:37:54.863Z,64
2023-03-21T06:40:28.307Z,64
2023-03-21T06:42:59.289Z,64
2023-03-21T06:45:29.920Z,64
2023-03-21T06:48:00.219Z,64
2023-03-21T06:50:31.234Z,63
2023-03-21T06:53:02.648Z,63
2023-03-21T06:55:33.569Z,63
2023-03-21T06:58:04.526Z,63
2023-03-21T07:00:38.561Z,63
2023-03-21T07:03:14.712Z,63
2023-03-21T07:05:46.154Z,63
2023-03-21T07:08:20.190Z,63
2023-03-21T07:10:54.165Z,63
2023-03-21T07:13:25.543Z,63
2023-03-21T07:15:56.822Z,63
2023-03-21T07:18:28.186Z,62
2023-03-21T07:21:06.026Z,63
2023-03-21T07:23:36.804Z,63
2023-03-21T07:26:07.678Z,63
2023-03-21T07:28:40.252Z,62
2023-03-21T07:31:12.172Z,63
2023-03-21T07:33:43.078Z,62
2023-03-21T07:36:16.097Z,63
2023-03-21T07:38:46.706Z,62
2023-03-21T07:41:18.183Z,62
2023-03-21T07:43:49.564Z,63
2023-03-21T07:46:20.275Z,63
2023-03-21T07:48:50.775Z,63
2023-03-21T07:51:24.375Z,62
2023-03-21T07:53:57.796Z,62
2023-03-21T07:56:28.485Z,62
2023-03-21T07:59:00.854Z,62
2023-03-21T08:01:35.556Z,63
2023-03-21T08:04:06.573Z,62
2023-03-21T08:06:39.771Z,63
2023-03-21T08:09:10.353Z,62
2023-03-21T08:11:41.290Z,62
2023-03-21T08:14:11.490Z,63
2023-03-21T08:16:42.273Z,62
2023-03-21T08:19:13.759Z,62
2023-03-21T08:21:44.442Z,61
2023-03-21T08:24:14.910Z,61
2023-03-21T08:26:46.976Z,61
2023-03-21T08:29:19.799Z,61
2023-03-21T08:31:51.370Z,61
2023-03-21T08:34:22.259Z,61
2023-03-21T08:36:53.856Z,60
2023-03-21T08:39:28.231Z,59
2023-03-21T08:42:00.118Z,59
2023-03-21T08:44:30.980Z,59
2023-03-21T08:47:01.082Z,59
2023-03-21T08:49:31.478Z,60
2023-03-21T08:52:02.231Z,59
2023-03-21T08:54:34.569Z,59
2023-03-21T08:57:05.739Z,59
2023-03-21T08:59:35.852Z,59
2023-03-21T09:02:08.682Z,59
2023-03-21T09:04:39.180Z,59
2023-03-21T09:07:12.204Z,59
2023-03-21T09:09:42.293Z,58
2023-03-21T09:12:12.233Z,58
2023-03-21T09:14:42.668Z,58
2023-03-21T09:17:14.885Z,57
2023-03-21T09:19:43.868Z,56
2023-03-21T09:22:15.090Z,56
2023-03-21T09:24:45.488Z,56
2023-03-21T09:29:54.269Z,56
2023-03-21T09:32:25.028Z,55
2023-03-21T09:34:58.716Z,54
2023-03-21T09:37:28.675Z,54
2023-03-21T09:39:57.935Z,54
2023-03-21T09:42:32.138Z,55
2023-03-21T09:45:12.086Z,54
2023-03-21T09:47:46.045Z,53
2023-03-21T09:50:18.857Z,53
2023-03-21T09:52:49.189Z,53
2023-03-21T09:55:24.183Z,52
2023-03-21T09:58:02.183Z,52
2023-03-21T10:00:36.148Z,53
2023-03-21T10:03:06.673Z,53
2023-03-21T10:05:38.819Z,53
2023-03-21T10:08:14.790Z,52
2023-03-21T10:10:45.882Z,53
2023-03-21T10:13:15.267Z,53
2023-03-21T10:18:29.632Z,53
2023-03-21T10:21:00.137Z,53
2023-03-21T10:23:31.805Z,53
2023-03-21T10:26:03.133Z,53
2023-03-21T10:28:51.885Z,53
2023-03-21T10:31:08.452Z,53
2023-03-21T10:33:39.231Z,52
2023-03-21T10:36:11.557Z,51
2023-03-21T10:38:45.911Z,51
2023-03-21T10:41:17.612Z,51
2023-03-21T10:43:50.914Z,50
2023-03-21T10:46:24.734Z,50
2023-03-21T10:48:56.073Z,50
2023-03-21T10:51:27.680Z,49
2023-03-21T10:53:59.226Z,50
2023-03-21T10:56:29.745Z,51
2023-03-21T10:59:02.230Z,51
2023-03-21T11:01:32.937Z,51
2023-03-21T11:04:09.044Z,51
2023-03-21T11:06:41.499Z,51
2023-03-21T11:09:13.193Z,51
2023-03-21T11:11:44.101Z,51
2023-03-21T11:14:14.630Z,51
2023-03-21T11:16:46.547Z,50
2023-03-21T11:19:18.291Z,50
2023-03-21T11:21:49.873Z,51
2023-03-21T11:24:20.604Z,50
2023-03-21T11:26:50.797Z,49
2023-03-21T11:29:21.579Z,50
2023-03-21T11:31:52.148Z,49
2023-03-21T11:34:26.897Z,49
2023-03-21T11:36:57.608Z,49
2023-03-21T11:39:28.689Z,49
2023-03-21T11:41:59.075Z,49
2023-03-21T11:44:29.554Z,48
2023-03-21T11:47:00.394Z,48
2023-03-21T11:49:31.355Z,49
2023-03-21T11:52:02.583Z,47
2023-03-21T11:54:32.952Z,47
2023-03-21T11:57:03.289Z,46
2023-03-21T11:59:33.590Z,47
2023-03-21T12:02:04.348Z,47
2023-03-21T12:04:35.125Z,47
2023-03-21T12:07:11.651Z,48
2023-03-21T12:09:44.993Z,47
2023-03-21T12:12:20.196Z,47
2023-03-21T12:14:48.493Z,48
2023-03-21T12:17:18.578Z,48
2023-03-21T12:19:48.641Z,47
2023-03-21T12:22:23.883Z,47
2023-03-21T12:24:54.772Z,47
2023-03-21T12:27:25.224Z,47
2023-03-21T12:29:55.663Z,47
2023-03-21T12:32:35.736Z,46
2023-03-21T12:35:08.936Z,46
2023-03-21T12:37:39.306Z,46
2023-03-21T12:40:15.808Z,46
2023-03-21T12:42:47.048Z,44
2023-03-21T12:45:19.572Z,44
2023-03-21T12:47:50.478Z,45
2023-03-21T12:50:21.220Z,45
2023-03-21T12:52:51.978Z,45
2023-03-21T12:55:22.596Z,44
2023-03-21T12:57:57.342Z,44
2023-03-21T13:00:23.947Z,45
2023-03-21T13:02:54.393Z,45
2023-03-21T13:05:25.250Z,46
2023-03-21T13:07:55.379Z,45
2023-03-21T13:10:26.114Z,45
2023-03-21T13:12:59.077Z,44
2023-03-21T13:15:27.988Z,43
2023-03-21T13:18:01.136Z,44
2023-03-21T13:20:31.276Z,45
2023-03-21T13:23:02.333Z,44
2023-03-21T13:25:32.575Z,44
2023-03-21T13:28:08.173Z,46
2023-03-21T13:30:38.481Z,45
2023-03-21T13:33:08.824Z,44
2023-03-21T13:35:40.237Z,44
2023-03-21T13:38:10.964Z,44
2023-03-21T13:40:41.708Z,45
2023-03-21T13:45:46.394Z,47
2023-03-21T13:48:17.150Z,47
2023-03-21T13:50:48.761Z,48
2023-03-21T13:53:19.515Z,48
2023-03-21T13:55:50.512Z,48
2023-03-21T13:58:25.195Z,48
2023-03-21T14:00:56.102Z,47
2023-03-21T14:03:26.720Z,47
2023-03-21T14:05:57.895Z,46
2023-03-21T14:08:37.039Z,45
2023-03-21T14:11:01.031Z,45
2023-03-21T14:13:34.991Z,45
2023-03-21T14:16:05.179Z,45
2023-03-21T14:18:52.659Z,45
2023-03-21T14:21:14.458Z,46
2023-03-21T14:23:44.155Z,46
2023-03-21T14:26:14.498Z,46
2023-03-21T14:28:46.755Z,46
2023-03-21T14:31:15.729Z,47
2023-03-21T14:33:47.838Z,47
2023-03-21T14:36:19.886Z,47
2023-03-21T14:38:50.123Z,47
2023-03-21T14:41:21.954Z,47
2023-03-21T14:43:52.938Z,47
2023-03-21T14:46:23.518Z,47
2023-03-21T14:48:54.106Z,47
2023-03-21T14:51:37.490Z,47
2023-03-21T14:54:07.942Z,47
2023-03-21T14:56:41.681Z,47
2023-03-21T14:59:15.199Z,48
2023-03-21T15:01:45.102Z,48
2023-03-21T15:04:15.696Z,48
2023-03-21T15:06:46.642Z,48
2023-03-21T15:09:17.338Z,48
2023-03-21T15:11:51.627Z,48
2023-03-21T15:14:22.398Z,48
2023-03-21T15:16:54.178Z,49
2023-03-21T15:19:25.338Z,49
2023-03-21T15:21:57.515Z,49
2023-03-21T15:24:28.528Z,49
2023-03-21T15:27:01.993Z,49
2023-03-21T15:29:33.782Z,49
2023-03-21T15:32:03.772Z,50
2023-03-21T15:34:37.027Z,49
2023-03-21T15:37:07.408Z,49
2023-03-21T15:39:39.632Z,49
2023-03-21T15:42:10.546Z,49
2023-03-21T15:44:41.669Z,49
2023-03-21T15:47:13.053Z,49
2023-03-21T15:49:45.033Z,49
2023-03-21T15:52:17.688Z,50
2023-03-21T15:54:49.376Z,50
2023-03-21T15:57:20.334Z,50
2023-03-21T15:59:51.543Z,50
2023-03-21T16:02:21.765Z,51
2023-03-21T16:04:52.188Z,51
2023-03-21T16:07:24.559Z,51
2023-03-21T16:09:55.436Z,51
2023-03-21T16:12:25.684Z,51
2023-03-21T16:14:56.536Z,52
2023-03-21T16:17:28.963Z,52
2023-03-21T16:20:01.207Z,53
2023-03-21T16:22:31.621Z,52
2023-03-21T16:25:03.822Z,52
2023-03-21T16:27:35.121Z,53
2023-03-21T16:30:06.607Z,53
2023-03-21T16:32:41.656Z,53
2023-03-21T16:35:23.903Z,53
2023-03-21T16:37:53.904Z,54
2023-03-21T16:40:24.431Z,53
2023-03-21T16:42:54.925Z,54
2023-03-21T16:45:25.215Z,54
2023-03-21T16:48:04.375Z,54
2023-03-21T16:50:36.275Z,54
2023-03-21T16:53:06.303Z,54
2023-03-21T16:55:39.714Z,55
2023-03-21T16:58:11.962Z,55
2023-03-21T17:00:42.513Z,55
2023-03-21T17:03:13.046Z,55
2023-03-21T17:05:48.464Z,55
2023-03-21T17:08:19.601Z,55
2023-03-21T17:10:53.110Z,55
2023-03-21T17:13:27.080Z,55
2023-03-21T17:15:57.776Z,55
2023-03-21T17:18:28.039Z,57
2023-03-21T17:20:58.933Z,56
2023-03-21T17:23:28.951Z,56
2023-03-21T17:26:00.376Z,56
2023-03-21T17:28:30.433Z,57
2023-03-21T17:31:00.153Z,56
2023-03-21T17:33:31.891Z,56
2023-03-21T17:36:02.351Z,57
2023-03-21T17:38:32.767Z,57
2023-03-21T17:41:03.264Z,56
2023-03-21T17:43:34.165Z,56
2023-03-21T17:46:04.733Z,57
2023-03-21T17:48:36.630Z,57
2023-03-21T17:51:15.240Z,57
2023-03-21T17:53:47.537Z,58
2023-03-21T17:56:19.709Z,57
2023-03-21T17:58:53.987Z,57
2023-03-21T18:01:24.658Z,57
2023-03-21T18:03:55.002Z,57
2023-03-21T18:06:25.743Z,58
2023-03-21T18:08:56.383Z,57
2023-03-21T18:11:27.051Z,57
2023-03-21T18:14:15.625Z,57
2023-03-21T18:16:37.125Z,57
2023-03-21T18:19:10.958Z,58
2023-03-21T18:21:44.615Z,58
2023-03-21T18:24:13.292Z,57
2023-03-21T18:26:47.817Z,58
2023-03-21T18:32:04.709Z,57
2023-03-21T18:34:21.733Z,57
2023-03-21T18:36:56.191Z,58
2023-03-21T18:39:26.677Z,57
2023-03-21T18:42:00.421Z,57
2023-03-21T18:44:31.456Z,57
2023-03-21T18:47:01.739Z,56
2023-03-21T18:52:04.656Z,56
2023-03-21T18:54:35.609Z,56
2023-03-21T18:57:39.979Z,56
2023-03-21T18:59:43.433Z,56
2023-03-21T19:02:15.850Z,57
2023-03-21T19:04:47.420Z,57
2023-03-21T19:07:18.526Z,57
2023-03-21T19:10:17.330Z,57
2023-03-21T19:12:21.865Z,56
2023-03-21T19:14:52.240Z,57
2023-03-21T19:19:53.832Z,57
2023-03-21T19:22:25.231Z,57
2023-03-21T19:24:56.792Z,57
2023-03-21T19:27:36.601Z,57
2023-03-21T19:30:14.228Z,57
2023-03-21T19:32:43.306Z,57
2023-03-21T19:35:17.324Z,57
2023-03-21T19:37:46.717Z,57
2023-03-21T19:40:17.171Z,58
2023-03-21T19:42:47.631Z,57
2023-03-21T19:45:22.787Z,58
2023-03-21T19:47:53.816Z,58
2023-03-21T19:50:49.095Z,58
2023-03-21T19:52:56.890Z,58
2023-03-21T19:55:27.704Z,58
2023-03-21T19:58:02.369Z,59
2023-03-21T20:00:33.889Z,59
2023-03-21T20:03:06.362Z,59
2023-03-21T20:05:35.473Z,60
2023-03-21T20:08:10.573Z,59
2023-03-21T20:10:37.513Z,60
2023-03-21T20:13:07.974Z,60
2023-03-21T20:15:45.782Z,60
2023-03-21T20:18:20.806Z,59
2023-03-21T20:20:55.194Z,60
2023-03-21T20:23:34.119Z,61
2023-03-21T20:26:12.198Z,61
2023-03-21T20:28:55.818Z,59
2023-03-21T20:31:17.869Z,60
2023-03-21T20:33:46.527Z,61
2023-03-21T20:36:37.939Z,61
2023-03-21T20:38:46.558Z,61
2023-03-21T20:41:17.005Z,61
2023-03-21T20:46:34.812Z,62
2023-03-21T20:49:03.588Z,62
2023-03-21T20:54:07.301Z,62
2023-03-21T20:56:50.637Z,62
2023-03-21T20:59:27.474Z,62
2023-03-21T21:01:54.129Z,62
2023-03-21T21:04:43.125Z,63
2023-03-21T21:06:59.184Z,62
2023-03-21T21:09:29.838Z,63
2023-03-21T21:12:09.214Z,62
2023-03-21T21:14:34.190Z,63
2023-03-21T21:17:23.110Z,63
2023-03-21T21:19:36.727Z,62
2023-03-21T21:22:07.292Z,62
2023-03-21T21:24:38.418Z,63
2023-03-21T21:27:11.881Z,63
2023-03-21T21:29:44.133Z,63
2023-03-21T21:32:12.748Z,64
2023-03-21T21:34:42.858Z,64
2023-03-21T21:37:12.731Z,64
2023-03-21T21:39:41.533Z,64
2023-03-21T21:42:12.545Z,65
2023-03-21T21:44:45.652Z,64
2023-03-21T21:47:16.000Z,64
2023-03-21T21:49:47.744Z,64
2023-03-21T21:52:19.814Z,63
2023-03-21T21:54:54.662Z,64
2023-03-21T21:57:25.636Z,64
2023-03-21T21:59:55.766Z,64
2023-03-21T22:02:26.711Z,65
2023-03-21T22:04:59.892Z,65
2023-03-21T22:07:30.512Z,65
2023-03-21T22:10:01.208Z,65
2023-03-21T22:12:33.595Z,65
2023-03-21T22:15:03.796Z,65
2023-03-21T22:17:37.196Z,64
2023-03-21T22:20:09.987Z,64
2023-03-21T22:22:41.700Z,64
2023-03-21T22:25:13.871Z,65
2023-03-21T22:27:44.289Z,65
2023-03-21T22:30:14.584Z,66
2023-03-21T22:32:48.302Z,65
2023-03-21T22:35:16.593Z,66
2023-03-21T22:37:46.699Z,65
2023-03-21T22:40:17.389Z,66
2023-03-21T22:42:47.911Z,66
2023-03-21T22:45:21.271Z,65
2023-03-21T22:47:55.472Z,65
2023-03-21T22:50:25.996Z,65
2023-03-21T22:52:59.317Z,65
2023-03-21T22:55:30.004Z,65
2023-03-21T22:58:01.170Z,65
2023-03-21T23:00:31.743Z,65
2023-03-21T23:03:04.733Z,65
2023-03-21T23:05:36.680Z,65
2023-03-21T23:08:06.727Z,65
2023-03-21T23:10:40.331Z,65
2023-03-21T23:13:10.520Z,65
2023-03-21T23:15:41.932Z,65
2023-03-21T23:18:12.236Z,65
2023-03-21T23:20:42.951Z,66
2023-03-21T23:23:13.148Z,66
2023-03-21T23:25:46.122Z,65
2023-03-21T23:28:16.887Z,65
2023-03-21T23:30:47.473Z,65
2023-03-21T23:33:18.766Z,65
2023-03-21T23:35:49.656Z,65
2023-03-21T23:38:21.612Z,65
2023-03-21T23:40:52.086Z,65
2023-03-21T23:43:27.159Z,66
2023-03-21T23:45:57.920Z,65
2023-03-21T23:48:28.934Z,66
2023-03-21T23:50:59.365Z,66
2023-03-21T23:53:29.873Z,66
2023-03-21T23:56:00.343Z,66
2023-03-21T23:58:31.428Z,65
